createdAt,value
2023-06-27T00:00:47.879Z,221.13
2023-06-27T00:01:47.979Z,221.06
2023-06-27T00:02:48.079Z,219.83
2023-06-27T00:03:47.976Z,217.26
2023-06-27T00:04:47.955Z,220.38
2023-06-27T00:05:47.959Z,223.43
2023-06-27T00:06:48.079Z,224.11
2023-06-27T00:07:48.035Z,226.30
2023-06-27T00:08:48.085Z,223.10
2023-06-27T00:09:48.163Z,228.27
2023-06-27T00:10:48.203Z,229.29
2023-06-27T00:11:48.278Z,235.22
2023-06-27T00:12:48.284Z,236.59
2023-06-27T00:13:48.347Z,231.55
2023-06-27T00:14:48.438Z,233.78
2023-06-27T00:15:48.482Z,232.86
2023-06-27T00:16:48.566Z,239.97
2023-06-27T00:17:48.600Z,240.06
2023-06-27T00:18:48.655Z,241.08
2023-06-27T00:19:48.774Z,237.93
2023-06-27T00:20:48.746Z,247.06
2023-06-27T00:21:48.843Z,250.18
2023-06-27T00:22:48.846Z,250.00
2023-06-27T00:23:48.883Z,250.00
2023-06-27T00:24:49.061Z,246.35
2023-06-27T00:25:49.043Z,242.90
2023-06-27T00:26:49.068Z,244.53
2023-06-27T00:27:49.180Z,249.09
2023-06-27T00:28:49.224Z,242.76
2023-06-27T00:29:49.286Z,242.57
2023-06-27T00:30:49.357Z,240.82
2023-06-27T00:31:49.524Z,249.64
2023-06-27T00:32:49.505Z,251.92
2023-06-27T00:33:49.546Z,250.66
2023-06-27T00:34:49.546Z,247.17
2023-06-27T00:35:49.606Z,246.47
2023-06-27T00:36:49.643Z,244.93
2023-06-27T00:37:49.650Z,239.98
2023-06-27T00:38:49.688Z,233.86
2023-06-27T00:39:49.718Z,235.18
2023-06-27T00:40:49.710Z,235.19
2023-06-27T00:41:49.819Z,233.21
2023-06-27T00:42:49.856Z,237.49
2023-06-27T00:43:49.872Z,234.05
2023-06-27T00:44:49.901Z,233.23
2023-06-27T00:45:49.930Z,236.76
2023-06-27T00:46:49.976Z,241.46
2023-06-27T00:47:50.003Z,248.18
2023-06-27T00:48:49.989Z,245.82
2023-06-27T00:49:50.029Z,244.53
2023-06-27T00:50:50.093Z,245.66
2023-06-27T00:51:50.114Z,244.02
2023-06-27T00:52:50.134Z,246.07
2023-06-27T00:53:50.185Z,240.01
2023-06-27T00:54:50.196Z,229.10
2023-06-27T00:55:50.191Z,223.94
2023-06-27T00:56:50.239Z,224.84
2023-06-27T00:57:50.316Z,227.03
2023-06-27T00:58:50.308Z,229.01
2023-06-27T00:59:50.341Z,234.36
2023-06-27T01:00:50.380Z,239.64
2023-06-27T01:01:50.438Z,242.92
2023-06-27T01:02:50.543Z,234.59
2023-06-27T01:03:50.535Z,231.96
2023-06-27T01:04:50.533Z,238.99
2023-06-27T01:05:50.557Z,237.09
2023-06-27T01:06:50.691Z,237.52
2023-06-27T01:07:50.645Z,232.94
2023-06-27T01:08:50.684Z,232.96
2023-06-27T01:09:50.750Z,236.07
2023-06-27T01:10:50.770Z,239.28
2023-06-27T01:11:50.831Z,238.00
2023-06-27T01:12:50.874Z,237.64
2023-06-27T01:13:50.913Z,240.25
2023-06-27T01:14:50.944Z,240.99
2023-06-27T01:15:50.967Z,243.45
2023-06-27T01:16:51.001Z,246.05
2023-06-27T01:17:51.108Z,250.00
2023-06-27T01:18:51.066Z,252.50
2023-06-27T01:19:51.114Z,246.78
2023-06-27T01:20:51.192Z,240.10
2023-06-27T01:21:51.244Z,239.04
2023-06-27T01:22:51.262Z,239.40
2023-06-27T01:23:51.273Z,244.12
2023-06-27T01:24:51.363Z,250.00
2023-06-27T01:25:51.409Z,250.33
2023-06-27T01:26:51.416Z,249.79
2023-06-27T01:27:51.440Z,248.03
2023-06-27T01:28:51.505Z,247.52
2023-06-27T01:29:51.567Z,249.34
2023-06-27T01:30:51.561Z,245.08
2023-06-27T01:31:51.722Z,242.73
2023-06-27T01:32:51.639Z,239.26
2023-06-27T01:33:51.680Z,244.28
2023-06-27T01:34:51.734Z,252.31
2023-06-27T01:35:51.714Z,247.84
2023-06-27T01:36:51.832Z,243.00
2023-06-27T01:37:51.826Z,236.76
2023-06-27T01:38:51.815Z,234.06
2023-06-27T01:39:51.836Z,227.77
2023-06-27T01:40:51.891Z,217.08
2023-06-27T01:41:52.027Z,211.44
2023-06-27T01:42:51.954Z,214.62
2023-06-27T01:43:51.968Z,217.43
2023-06-27T01:44:52.099Z,221.40
2023-06-27T01:45:52.289Z,223.32
2023-06-27T01:46:52.281Z,225.42
2023-06-27T01:47:52.374Z,229.24
2023-06-27T01:48:52.407Z,231.06
2023-06-27T01:49:52.746Z,230.45
2023-06-27T01:50:52.474Z,235.28
2023-06-27T01:51:53.157Z,240.67
2023-06-27T01:52:52.562Z,238.44
2023-06-27T01:53:52.586Z,239.04
2023-06-27T01:54:52.692Z,236.85
2023-06-27T01:55:52.701Z,235.39
2023-06-27T01:56:52.788Z,236.13
2023-06-27T01:57:52.782Z,233.76
2023-06-27T01:58:52.822Z,231.26
2023-06-27T01:59:52.905Z,231.76
2023-06-27T02:00:52.983Z,228.32
2023-06-27T02:01:52.959Z,227.59
2023-06-27T02:02:53.083Z,238.01
2023-06-27T02:03:53.033Z,244.05
2023-06-27T02:04:53.112Z,249.88
2023-06-27T02:05:53.192Z,243.49
2023-06-27T02:06:53.292Z,234.26
2023-06-27T02:07:53.259Z,230.81
2023-06-27T02:08:53.351Z,233.36
2023-06-27T02:09:53.392Z,229.88
2023-06-27T02:10:53.406Z,229.96
2023-06-27T02:11:53.459Z,227.40
2023-06-27T02:12:53.489Z,228.93
2023-06-27T02:13:53.538Z,227.79
2023-06-27T02:14:53.581Z,229.42
2023-06-27T02:15:53.615Z,229.38
2023-06-27T02:16:53.622Z,239.43
2023-06-27T02:17:53.666Z,244.43
2023-06-27T02:18:53.691Z,244.84
2023-06-27T02:19:53.715Z,250.20
2023-06-27T02:20:53.682Z,249.90
2023-06-27T02:21:53.710Z,247.93
2023-06-27T02:22:53.672Z,249.19
2023-06-27T02:23:53.672Z,246.09
2023-06-27T02:24:53.676Z,239.51
2023-06-27T02:25:53.687Z,236.28
2023-06-27T02:26:53.645Z,233.06
2023-06-27T02:27:53.670Z,235.06
2023-06-27T02:28:53.676Z,237.05
2023-06-27T02:29:53.768Z,237.21
2023-06-27T02:30:53.825Z,236.60
2023-06-27T02:31:53.771Z,231.53
2023-06-27T02:32:53.790Z,229.81
2023-06-27T02:33:53.737Z,235.41
2023-06-27T02:34:53.869Z,231.48
2023-06-27T02:35:53.947Z,223.35
2023-06-27T02:36:54.068Z,222.12
2023-06-27T02:37:54.089Z,217.25
2023-06-27T02:38:54.095Z,215.73
2023-06-27T02:39:54.102Z,211.80
2023-06-27T02:40:54.059Z,206.28
2023-06-27T02:41:54.162Z,200.59
2023-06-27T02:42:54.128Z,201.81
2023-06-27T02:43:54.106Z,200.69
2023-06-27T02:44:54.131Z,198.41
2023-06-27T02:45:54.137Z,179.23
2023-06-27T02:46:54.245Z,173.90
2023-06-27T02:47:54.250Z,175.11
2023-06-27T02:48:54.216Z,187.05
2023-06-27T02:49:54.261Z,194.82
2023-06-27T02:50:54.266Z,197.74
2023-06-27T02:51:54.268Z,183.91
2023-06-27T02:52:54.291Z,184.89
2023-06-27T02:53:54.286Z,183.25
2023-06-27T02:54:54.317Z,182.80
2023-06-27T02:55:54.368Z,181.84
2023-06-27T02:56:54.445Z,187.88
2023-06-27T02:57:54.522Z,184.76
2023-06-27T02:58:54.647Z,186.60
2023-06-27T02:59:54.696Z,191.20
2023-06-27T03:00:54.679Z,197.03
2023-06-27T03:01:54.715Z,203.33
2023-06-27T03:02:54.828Z,208.86
2023-06-27T03:04:09.254Z,210.27
2023-06-27T03:04:55.741Z,210.30
2023-06-27T03:05:54.718Z,210.68
2023-06-27T03:06:54.846Z,211.93
2023-06-27T03:07:54.735Z,214.82
2023-06-27T03:08:54.726Z,219.45
2023-06-27T03:09:54.734Z,222.50
2023-06-27T03:10:54.704Z,221.24
2023-06-27T03:11:54.757Z,206.12
2023-06-27T03:12:54.661Z,183.32
2023-06-27T03:13:54.698Z,175.58
2023-06-27T03:14:54.679Z,180.29
2023-06-27T03:15:54.697Z,175.58
2023-06-27T03:16:54.697Z,173.29
2023-06-27T03:17:54.713Z,157.83
2023-06-27T03:18:54.638Z,151.43
2023-06-27T03:19:54.657Z,149.72
2023-06-27T03:20:54.609Z,148.14
2023-06-27T03:21:54.658Z,144.04
2023-06-27T03:22:54.626Z,149.28
2023-06-27T03:23:54.635Z,153.01
2023-06-27T03:24:54.628Z,146.67
2023-06-27T03:25:54.584Z,137.76
2023-06-27T03:26:54.608Z,140.05
2023-06-27T03:27:54.613Z,140.36
2023-06-27T03:28:54.600Z,145.34
2023-06-27T03:29:54.585Z,152.58
2023-06-27T03:30:54.567Z,144.93
2023-06-27T03:31:54.640Z,136.43
2023-06-27T03:32:54.634Z,127.87
2023-06-27T03:33:54.552Z,127.37
2023-06-27T03:34:54.524Z,134.81
2023-06-27T03:35:54.529Z,126.06
2023-06-27T03:36:54.539Z,122.90
2023-06-27T03:37:54.507Z,120.51
2023-06-27T03:38:54.498Z,120.56
2023-06-27T03:39:54.589Z,122.76
2023-06-27T03:40:54.594Z,130.91
2023-06-27T03:41:54.639Z,134.37
2023-06-27T03:42:54.652Z,136.73
2023-06-27T03:43:54.734Z,138.46
2023-06-27T03:44:54.777Z,128.75
2023-06-27T03:45:54.815Z,123.21
2023-06-27T03:46:54.885Z,124.90
2023-06-27T03:47:54.961Z,124.74
2023-06-27T03:48:54.993Z,132.60
2023-06-27T03:49:55.045Z,134.91
2023-06-27T03:50:55.069Z,136.45
2023-06-27T03:51:55.119Z,140.24
2023-06-27T03:52:55.147Z,150.16
2023-06-27T03:53:55.154Z,164.70
2023-06-27T03:54:55.238Z,170.94
2023-06-27T03:55:55.247Z,174.90
2023-06-27T03:56:55.295Z,178.82
2023-06-27T03:57:55.329Z,183.51
2023-06-27T03:58:55.329Z,187.88
2023-06-27T03:59:55.361Z,192.04
2023-06-27T04:00:55.432Z,189.90
2023-06-27T04:01:55.406Z,182.18
2023-06-27T04:02:55.492Z,178.03
2023-06-27T04:03:55.696Z,180.26
2023-06-27T04:04:55.711Z,178.36
2023-06-27T04:05:55.545Z,153.38
2023-06-27T04:06:55.611Z,137.55
2023-06-27T04:07:55.578Z,123.33
2023-06-27T04:08:55.609Z,120.28
2023-06-27T04:09:55.685Z,106.64
2023-06-27T04:10:55.653Z,98.26
2023-06-27T04:11:55.647Z,94.51
2023-06-27T04:12:55.690Z,95.63
2023-06-27T04:13:55.774Z,98.95
2023-06-27T04:14:55.767Z,89.52
2023-06-27T04:15:55.759Z,88.29
2023-06-27T04:16:55.884Z,86.71
2023-06-27T04:17:55.872Z,89.23
2023-06-27T04:18:55.821Z,94.59
2023-06-27T04:19:55.897Z,99.86
2023-06-27T04:20:55.945Z,101.54
2023-06-27T04:21:56.060Z,105.95
2023-06-27T04:22:56.069Z,104.94
2023-06-27T04:23:56.115Z,110.66
2023-06-27T04:24:56.184Z,107.87
2023-06-27T04:25:56.218Z,98.93
2023-06-27T04:26:56.238Z,99.84
2023-06-27T04:27:56.268Z,100.86
2023-06-27T04:28:56.262Z,95.14
2023-06-27T04:29:56.276Z,94.61
2023-06-27T04:30:56.302Z,95.84
2023-06-27T04:31:56.273Z,99.18
2023-06-27T04:32:56.307Z,89.66
2023-06-27T04:33:56.357Z,93.10
2023-06-27T04:34:56.308Z,87.91
2023-06-27T04:35:56.304Z,87.28
2023-06-27T04:36:56.372Z,78.65
2023-06-27T04:37:56.402Z,75.40
2023-06-27T04:38:56.435Z,78.03
2023-06-27T04:39:56.462Z,81.79
2023-06-27T04:40:56.517Z,90.15
2023-06-27T04:41:56.549Z,83.03
2023-06-27T04:42:56.609Z,76.87
2023-06-27T04:43:56.584Z,80.07
2023-06-27T04:44:56.603Z,83.80
2023-06-27T04:45:56.647Z,87.01
2023-06-27T04:46:56.690Z,87.90
2023-06-27T04:47:56.801Z,86.55
2023-06-27T04:48:56.648Z,95.48
2023-06-27T04:49:56.723Z,102.45
2023-06-27T04:50:56.729Z,104.89
2023-06-27T04:51:56.779Z,92.44
2023-06-27T04:52:56.790Z,90.49
2023-06-27T04:53:56.828Z,88.40
2023-06-27T04:54:56.860Z,87.08
2023-06-27T04:55:56.877Z,89.46
2023-06-27T04:57:08.433Z,90.67
2023-06-27T04:57:57.886Z,90.70
2023-06-27T04:58:56.884Z,89.85
2023-06-27T04:59:56.916Z,91.59
2023-06-27T05:02:16.036Z,25.00
2023-06-27T05:03:16.174Z,25.00
2023-06-27T05:04:16.000Z,25.00
2023-06-27T05:05:16.135Z,25.00
2023-06-27T05:06:16.036Z,25.00
2023-06-27T05:07:16.055Z,35.17
2023-06-27T05:08:15.996Z,21.66
2023-06-27T05:09:15.990Z,18.48
2023-06-27T05:10:16.019Z,28.00
2023-06-27T05:11:16.018Z,45.33
2023-06-27T05:12:16.003Z,35.85
2023-06-27T05:13:16.011Z,66.44
2023-06-27T05:14:15.952Z,105.03
2023-06-27T05:15:15.966Z,126.16
2023-06-27T05:16:15.959Z,119.12
2023-06-27T05:17:15.945Z,112.85
2023-06-27T05:18:15.926Z,99.19
2023-06-27T05:19:15.930Z,102.07
2023-06-27T05:20:15.909Z,136.40
2023-06-27T05:21:15.921Z,150.17
2023-06-27T05:22:15.918Z,141.13
2023-06-27T05:23:15.964Z,133.70
2023-06-27T05:24:15.909Z,131.92
2023-06-27T05:25:15.915Z,136.17
2023-06-27T05:26:15.903Z,164.50
2023-06-27T05:27:16.042Z,114.77
2023-06-27T05:28:15.909Z,99.97
2023-06-27T05:29:15.849Z,124.77
2023-06-27T05:30:15.866Z,156.58
2023-06-27T05:31:15.873Z,144.24
2023-06-27T05:32:16.218Z,120.48
2023-06-27T05:33:15.864Z,93.04
2023-06-27T05:34:15.893Z,123.46
2023-06-27T05:35:15.842Z,163.29
2023-06-27T05:36:15.804Z,187.85
2023-06-27T05:37:16.231Z,140.42
2023-06-27T05:38:15.855Z,80.67
2023-06-27T05:39:15.797Z,88.89
2023-06-27T05:40:15.787Z,134.03
2023-06-27T05:41:15.830Z,137.48
2023-06-27T05:42:16.258Z,155.36
2023-06-27T05:43:15.808Z,216.23
2023-06-27T05:44:15.816Z,242.83
2023-06-27T05:45:18.457Z,238.52
2023-06-27T05:47:35.130Z,25.00
2023-06-27T05:48:34.911Z,25.00
2023-06-27T05:49:34.877Z,25.00
2023-06-27T05:50:35.222Z,25.00
2023-06-27T05:51:34.987Z,25.00
2023-06-27T05:52:35.169Z,31.77
2023-06-27T05:53:34.892Z,23.38
2023-06-27T05:54:34.885Z,9.64
2023-06-27T05:55:34.863Z,28.11
2023-06-27T05:56:34.784Z,30.53
2023-06-27T05:57:35.413Z,51.47
2023-06-27T05:58:34.825Z,78.52
2023-06-27T05:59:34.817Z,86.88
2023-06-27T06:00:35.293Z,119.72
2023-06-27T06:01:35.342Z,140.91
2023-06-27T06:02:36.674Z,121.87
2023-06-27T06:03:34.901Z,119.09
2023-06-27T06:04:34.883Z,125.01
2023-06-27T06:05:34.936Z,131.65
2023-06-27T06:06:34.762Z,131.55
2023-06-27T06:07:35.116Z,96.08
2023-06-27T06:08:34.734Z,76.93
2023-06-27T06:09:34.876Z,68.20
2023-06-27T06:10:34.769Z,24.29
2023-06-27T06:11:34.786Z,25.00
2023-06-27T06:12:35.188Z,27.07
2023-06-27T06:13:35.088Z,61.23
2023-06-27T06:14:34.805Z,77.86
2023-06-27T06:15:34.723Z,105.32
2023-06-27T06:16:34.691Z,149.92
2023-06-27T06:17:35.268Z,147.83
2023-06-27T06:18:34.729Z,127.58
2023-06-27T06:19:34.722Z,136.31
2023-06-27T06:20:34.664Z,119.57
2023-06-27T06:21:34.675Z,114.98
2023-06-27T06:22:35.106Z,159.38
2023-06-27T06:23:34.676Z,170.05
2023-06-27T06:24:34.645Z,128.93
2023-06-27T06:25:34.688Z,125.98
2023-06-27T06:26:34.663Z,102.91
2023-06-27T06:27:35.133Z,98.96
2023-06-27T06:28:34.593Z,100.06
2023-06-27T06:29:34.602Z,25.00
2023-06-27T06:30:34.612Z,34.74
2023-06-27T06:31:34.673Z,28.97
2023-06-27T06:32:35.873Z,46.00
2023-06-27T06:33:34.603Z,64.97
2023-06-27T06:34:34.578Z,74.95
2023-06-27T06:35:34.580Z,42.49
2023-06-27T06:36:34.550Z,32.28
2023-06-27T06:37:34.646Z,34.90
2023-06-27T06:38:34.572Z,24.21
2023-06-27T06:39:34.503Z,44.48
2023-06-27T06:40:34.570Z,29.16
2023-06-27T06:41:34.577Z,45.76
2023-06-27T06:42:34.566Z,58.94
2023-06-27T06:43:34.576Z,90.91
2023-06-27T06:44:35.107Z,68.83
2023-06-27T06:45:34.515Z,45.14
2023-06-27T06:46:34.583Z,19.07
2023-06-27T06:47:34.538Z,43.77
2023-06-27T06:48:34.580Z,89.86
2023-06-27T06:49:34.510Z,78.72
2023-06-27T06:50:34.528Z,89.47
2023-06-27T06:51:34.469Z,95.62
2023-06-27T06:52:34.488Z,84.00
2023-06-27T06:53:34.605Z,88.63
2023-06-27T06:54:34.476Z,100.58
2023-06-27T06:55:34.438Z,93.65
2023-06-27T06:56:34.527Z,123.37
2023-06-27T06:57:34.518Z,111.14
2023-06-27T06:58:34.566Z,103.42
2023-06-27T06:59:34.608Z,108.87
2023-06-27T07:00:34.652Z,139.46
2023-06-27T07:01:34.706Z,148.76
2023-06-27T07:02:34.871Z,180.77
2023-06-27T07:03:35.180Z,172.03
2023-06-27T07:04:34.947Z,146.24
2023-06-27T07:05:34.855Z,115.83
2023-06-27T07:06:34.879Z,133.41
2023-06-27T07:07:34.921Z,130.67
2023-06-27T07:08:34.982Z,127.22
2023-06-27T07:09:36.262Z,122.26
2023-06-27T07:10:35.088Z,155.84
2023-06-27T07:11:35.025Z,141.77
2023-06-27T07:12:35.078Z,196.58
2023-06-27T07:13:35.160Z,152.32
2023-06-27T07:14:35.189Z,132.75
2023-06-27T07:15:35.148Z,157.05
2023-06-27T07:16:35.158Z,195.28
2023-06-27T07:17:35.239Z,204.26
2023-06-27T07:18:35.574Z,216.15
2023-06-27T07:19:35.337Z,163.82
2023-06-27T07:20:35.339Z,124.44
2023-06-27T07:21:35.464Z,138.06
2023-06-27T07:22:35.467Z,110.27
2023-06-27T07:23:35.970Z,90.80
2023-06-27T07:24:35.575Z,106.10
2023-06-27T07:25:35.528Z,127.63
2023-06-27T07:26:35.712Z,140.39
2023-06-27T07:27:35.595Z,133.84
2023-06-27T07:28:35.612Z,130.71
2023-06-27T07:29:35.614Z,140.17
2023-06-27T07:30:35.626Z,137.09
2023-06-27T07:31:35.716Z,144.91
2023-06-27T07:32:35.741Z,151.70
2023-06-27T07:33:36.242Z,154.75
2023-06-27T07:34:35.761Z,124.36
2023-06-27T07:35:35.760Z,156.65
2023-06-27T07:36:35.805Z,132.75
2023-06-27T07:37:35.867Z,139.68
2023-06-27T07:38:36.180Z,147.81
2023-06-27T07:39:35.813Z,138.63
2023-06-27T07:40:35.897Z,151.83
2023-06-27T07:41:35.967Z,140.75
2023-06-27T07:42:35.939Z,142.92
2023-06-27T07:43:36.205Z,156.55
2023-06-27T07:44:35.947Z,149.89
2023-06-27T07:45:35.954Z,157.80
2023-06-27T07:46:36.040Z,148.51
2023-06-27T07:47:36.105Z,154.35
2023-06-27T07:48:36.088Z,158.26
2023-06-27T07:49:36.187Z,154.11
2023-06-27T07:50:36.163Z,160.16
2023-06-27T07:51:36.170Z,169.39
2023-06-27T07:52:36.254Z,148.54
2023-06-27T07:53:36.642Z,130.15
2023-06-27T07:54:36.323Z,141.84
2023-06-27T07:55:36.667Z,152.23
2023-06-27T07:56:36.365Z,132.81
2023-06-27T07:57:36.430Z,117.43
2023-06-27T07:58:36.637Z,117.00
2023-06-27T07:59:36.362Z,133.49
2023-06-27T08:00:36.476Z,136.37
2023-06-27T08:01:36.536Z,160.70
2023-06-27T08:02:36.608Z,123.85
2023-06-27T08:03:37.217Z,116.88
2023-06-27T08:04:36.672Z,137.57
2023-06-27T08:05:36.593Z,165.10
2023-06-27T08:06:36.641Z,159.55
2023-06-27T08:07:36.801Z,157.33
2023-06-27T08:08:36.632Z,198.00
2023-06-27T08:09:37.162Z,237.32
2023-06-27T08:10:36.700Z,232.21
2023-06-27T08:11:36.737Z,247.21
2023-06-27T08:12:36.735Z,210.97
2023-06-27T08:13:36.817Z,169.45
2023-06-27T08:14:36.796Z,190.18
2023-06-27T08:15:36.804Z,170.60
2023-06-27T08:16:36.867Z,166.37
2023-06-27T08:17:37.585Z,176.51
2023-06-27T08:18:37.034Z,169.84
2023-06-27T08:19:36.815Z,151.31
2023-06-27T08:20:36.907Z,171.26
2023-06-27T08:21:37.507Z,160.91
2023-06-27T08:22:36.949Z,162.47
2023-06-27T08:23:37.002Z,197.17
2023-06-27T08:24:37.197Z,256.89
2023-06-27T08:25:37.188Z,187.31
2023-06-27T08:26:37.140Z,178.80
2023-06-27T08:27:37.184Z,165.21
2023-06-27T08:28:37.172Z,226.13
2023-06-27T08:29:37.251Z,225.34
2023-06-27T08:30:37.339Z,176.51
2023-06-27T08:31:37.290Z,146.68
2023-06-27T08:32:37.407Z,99.68
2023-06-27T08:33:37.387Z,136.36
2023-06-27T08:34:37.624Z,120.84
2023-06-27T08:35:37.442Z,119.87
2023-06-27T08:36:37.521Z,116.95
2023-06-27T08:37:37.524Z,120.26
2023-06-27T08:38:37.600Z,97.88
2023-06-27T08:39:37.563Z,101.73
2023-06-27T08:40:38.140Z,94.07
2023-06-27T08:41:37.640Z,70.09
2023-06-27T08:42:37.678Z,72.08
2023-06-27T08:43:37.698Z,79.36
2023-06-27T08:44:38.166Z,62.48
2023-06-27T08:45:37.728Z,80.45
2023-06-27T08:46:37.762Z,82.22
2023-06-27T08:47:37.816Z,75.81
2023-06-27T08:48:37.727Z,72.75
2023-06-27T08:49:38.413Z,63.75
2023-06-27T08:50:38.681Z,58.55
2023-06-27T08:51:39.002Z,66.54
2023-06-27T08:52:37.704Z,89.87
2023-06-27T08:53:37.775Z,88.81
2023-06-27T08:54:38.171Z,55.45
2023-06-27T08:55:37.688Z,56.54
2023-06-27T08:56:37.666Z,79.16
2023-06-27T08:57:37.646Z,55.05
2023-06-27T08:58:37.715Z,56.84
2023-06-27T08:59:37.824Z,40.85
2023-06-27T09:00:37.884Z,62.49
2023-06-27T09:01:37.872Z,96.64
2023-06-27T09:02:37.907Z,93.67
2023-06-27T09:03:39.162Z,145.73
2023-06-27T09:04:38.026Z,110.70
2023-06-27T09:05:40.271Z,103.20
2023-06-27T09:06:38.184Z,123.02
2023-06-27T09:07:38.189Z,82.47
2023-06-27T09:08:38.157Z,86.75
2023-06-27T09:09:38.650Z,123.88
2023-06-27T09:10:38.711Z,127.54
2023-06-27T09:11:38.213Z,92.24
2023-06-27T09:12:38.299Z,80.99
2023-06-27T09:13:38.321Z,53.47
2023-06-27T09:14:38.685Z,113.66
2023-06-27T09:15:38.658Z,96.06
2023-06-27T09:16:38.580Z,60.16
2023-06-27T09:17:38.485Z,112.04
2023-06-27T09:18:38.459Z,96.38
2023-06-27T09:19:38.694Z,89.15
2023-06-27T09:20:38.917Z,69.27
2023-06-27T09:21:38.616Z,99.69
2023-06-27T09:22:39.532Z,99.07
2023-06-27T09:23:38.671Z,83.69
2023-06-27T09:24:38.736Z,112.65
2023-06-27T09:25:39.197Z,122.96
2023-06-27T09:26:38.803Z,136.31
2023-06-27T09:27:38.814Z,116.06
2023-06-27T09:28:38.897Z,108.27
2023-06-27T09:29:40.944Z,91.59
2023-06-27T09:30:39.124Z,110.39
2023-06-27T09:31:39.030Z,129.50
2023-06-27T09:32:39.022Z,77.94
2023-06-27T09:33:43.039Z,94.03
2023-06-27T09:34:39.240Z,84.71
2023-06-27T09:39:39.078Z,87.11
2023-06-27T09:40:39.043Z,86.82
2023-06-27T09:41:38.910Z,63.42
2023-06-27T09:42:38.919Z,58.42
2023-06-27T09:43:38.917Z,59.07
2023-06-27T09:44:39.162Z,92.48
2023-06-27T09:45:39.255Z,59.49
2023-06-27T09:46:39.338Z,72.82
2023-06-27T09:47:38.861Z,59.65
2023-06-27T09:48:38.846Z,79.10
2023-06-27T09:49:39.122Z,67.57
2023-06-27T09:50:38.935Z,81.48
2023-06-27T09:51:39.092Z,105.90
2023-06-27T09:52:38.966Z,69.90
2023-06-27T09:53:38.960Z,46.31
2023-06-27T09:54:39.184Z,44.19
2023-06-27T09:55:39.065Z,49.02
2023-06-27T09:56:38.833Z,49.84
2023-06-27T09:57:38.824Z,37.81
2023-06-27T09:58:38.936Z,24.71
2023-06-27T09:59:38.802Z,47.69
2023-06-27T10:00:39.160Z,55.29
2023-06-27T10:01:38.785Z,49.81
2023-06-27T10:02:38.795Z,71.93
2023-06-27T10:03:39.185Z,72.88
2023-06-27T10:04:40.585Z,97.78
2023-06-27T10:05:45.437Z,102.53
2023-06-27T10:06:39.839Z,41.01
2023-06-27T10:07:38.842Z,29.68
2023-06-27T10:08:39.161Z,29.84
2023-06-27T10:09:38.878Z,71.23
2023-06-27T10:10:39.335Z,47.59
2023-06-27T10:11:38.934Z,79.91
2023-06-27T10:12:39.398Z,116.93
2023-06-27T10:13:38.949Z,85.62
2023-06-27T10:14:38.997Z,77.62
2023-06-27T10:15:39.707Z,55.60
2023-06-27T10:16:39.112Z,84.43
2023-06-27T10:17:39.932Z,95.28
2023-06-27T10:18:39.129Z,102.62
2023-06-27T10:19:39.167Z,108.91
2023-06-27T10:20:39.760Z,100.28
2023-06-27T10:21:39.181Z,113.81
2023-06-27T10:22:39.310Z,138.24
2023-06-27T10:23:39.789Z,133.07
2023-06-27T10:24:41.568Z,125.81
2023-06-27T10:25:39.736Z,130.47
2023-06-27T10:26:39.270Z,151.58
2023-06-27T10:27:39.294Z,138.25
2023-06-27T10:28:39.321Z,136.02
2023-06-27T10:29:39.320Z,148.42
2023-06-27T10:30:39.351Z,104.53
2023-06-27T10:31:39.270Z,108.37
2023-06-27T10:32:39.305Z,98.80
2023-06-27T10:33:39.282Z,76.28
2023-06-27T10:34:39.257Z,66.30
2023-06-27T10:35:39.655Z,66.87
2023-06-27T10:36:39.231Z,95.45
2023-06-27T10:37:39.210Z,65.60
2023-06-27T10:38:39.227Z,56.03
2023-06-27T10:39:39.219Z,55.69
2023-06-27T10:40:39.670Z,49.26
2023-06-27T10:41:39.294Z,53.21
2023-06-27T10:42:39.173Z,48.92
2023-06-27T10:43:39.186Z,47.49
2023-06-27T10:44:39.191Z,28.31
2023-06-27T10:45:39.820Z,33.23
2023-06-27T10:46:39.195Z,69.10
2023-06-27T10:47:39.236Z,76.35
2023-06-27T10:48:39.170Z,72.55
2023-06-27T10:49:39.199Z,65.58
2023-06-27T10:50:39.195Z,50.37
2023-06-27T10:51:40.127Z,27.43
2023-06-27T10:52:39.149Z,63.48
2023-06-27T10:53:39.140Z,84.87
2023-06-27T10:54:39.136Z,94.59
2023-06-27T10:55:39.176Z,101.83
2023-06-27T10:56:39.096Z,67.00
2023-06-27T10:57:39.114Z,65.91
2023-06-27T10:58:39.096Z,68.56
2023-06-27T10:59:39.802Z,78.96
2023-06-27T11:00:39.185Z,56.97
2023-06-27T11:01:39.085Z,22.08
2023-06-27T11:02:39.259Z,24.24
2023-06-27T11:03:39.328Z,31.02
2023-06-27T11:04:39.217Z,60.49
2023-06-27T11:05:39.070Z,73.87
2023-06-27T11:06:39.061Z,67.35
2023-06-27T11:07:39.035Z,84.97
2023-06-27T11:08:39.037Z,120.38
2023-06-27T11:09:39.059Z,109.23
2023-06-27T11:10:39.179Z,68.79
2023-06-27T11:11:38.970Z,29.42
2023-06-27T11:12:39.009Z,32.36
2023-06-27T11:13:38.986Z,65.91
2023-06-27T11:14:39.086Z,33.57
2023-06-27T11:15:40.918Z,54.33
2023-06-27T11:16:39.122Z,64.71
2023-06-27T11:17:39.089Z,69.30
2023-06-27T11:18:39.224Z,47.58
2023-06-27T11:19:39.083Z,26.93
2023-06-27T11:20:39.885Z,30.13
2023-06-27T11:21:39.175Z,34.74
2023-06-27T11:22:39.167Z,49.04
2023-06-27T11:23:39.174Z,89.88
2023-06-27T11:24:39.283Z,87.46
2023-06-27T11:25:39.286Z,94.76
2023-06-27T11:26:39.291Z,83.59
2023-06-27T11:27:39.289Z,87.05
2023-06-27T11:28:39.296Z,87.89
2023-06-27T11:29:39.392Z,139.15
2023-06-27T11:30:39.998Z,166.01
2023-06-27T11:31:39.788Z,124.06
2023-06-27T11:32:41.314Z,124.13
2023-06-27T11:33:39.770Z,156.05
2023-06-27T11:34:39.633Z,96.37
2023-06-27T11:35:41.030Z,107.32
2023-06-27T11:36:40.163Z,75.38
2023-06-27T11:37:39.697Z,42.12
2023-06-27T11:38:39.759Z,32.97
2023-06-27T11:39:39.892Z,43.17
2023-06-27T11:41:40.707Z,78.41
2023-06-27T11:42:39.831Z,58.21
2023-06-27T11:43:39.826Z,73.89
2023-06-27T11:44:39.838Z,87.95
2023-06-27T11:45:39.813Z,59.05
2023-06-27T11:46:39.849Z,25.76
2023-06-27T11:47:39.865Z,29.28
2023-06-27T11:48:39.780Z,42.03
2023-06-27T11:49:39.795Z,25.00
2023-06-27T11:50:39.968Z,30.61
2023-06-27T11:51:39.804Z,25.78
2023-06-27T11:52:39.762Z,38.00
2023-06-27T11:53:39.791Z,50.57
2023-06-27T11:54:39.788Z,46.98
2023-06-27T11:55:39.741Z,36.95
2023-06-27T11:56:39.798Z,36.78
2023-06-27T11:57:39.747Z,62.91
2023-06-27T11:58:39.770Z,68.35
2023-06-27T11:59:39.737Z,39.41
2023-06-27T12:00:39.839Z,25.00
2023-06-27T12:01:39.786Z,25.77
2023-06-27T12:02:39.738Z,27.23
2023-06-27T12:03:39.794Z,53.78
2023-06-27T12:04:39.674Z,50.73
2023-06-27T12:05:39.683Z,45.02
2023-06-27T12:06:39.710Z,52.07
2023-06-27T12:07:39.674Z,46.92
2023-06-27T12:08:39.691Z,46.31
2023-06-27T12:09:39.667Z,47.76
2023-06-27T12:10:39.833Z,43.14
2023-06-27T12:11:39.671Z,37.66
2023-06-27T12:12:39.700Z,42.47
2023-06-27T12:13:39.653Z,47.68
2023-06-27T12:14:39.675Z,30.48
2023-06-27T12:15:39.646Z,37.33
2023-06-27T12:16:39.629Z,29.29
2023-06-27T12:17:39.666Z,26.27
2023-06-27T12:18:39.679Z,32.10
2023-06-27T12:19:39.742Z,38.19
2023-06-27T12:20:40.072Z,81.93
2023-06-27T12:21:39.805Z,79.15
2023-06-27T12:22:39.779Z,69.95
2023-06-27T12:23:39.831Z,77.29
2023-06-27T12:24:39.887Z,57.94
2023-06-27T12:25:39.973Z,49.99
2023-06-27T12:26:40.021Z,63.35
2023-06-27T12:27:39.986Z,44.34
2023-06-27T12:28:40.025Z,52.90
2023-06-27T12:29:40.097Z,25.31
2023-06-27T12:30:40.329Z,26.83
2023-06-27T12:31:40.115Z,28.64
2023-06-27T12:32:40.265Z,45.76
2023-06-27T12:33:40.128Z,78.68
2023-06-27T12:34:40.148Z,59.70
2023-06-27T12:35:40.179Z,67.35
2023-06-27T12:36:40.237Z,48.96
2023-06-27T12:37:40.206Z,84.62
2023-06-27T12:38:40.277Z,102.28
2023-06-27T12:39:40.279Z,99.06
2023-06-27T12:40:40.640Z,85.26
2023-06-27T12:41:40.466Z,60.86
2023-06-27T12:42:40.435Z,79.73
2023-06-27T12:43:40.422Z,90.25
2023-06-27T12:44:40.523Z,53.39
2023-06-27T12:45:44.615Z,20.04
2023-06-27T12:46:40.532Z,20.29